Time;durP1;ratioP1;P1;durP2;ratioP2;P2;SDS_P1;SDS_P2;PMS_P1;PMS_P2;Temp;Humidity;BMP_temperature;BMP_pressure;BME280_temperature;BME280_humidity;BME280_pressure;Samples;Min_cycle;Max_cycle;Signal;HPM_P1;HPM_P2
2023/11/21 00:00:00;;;;;;;3.20;1.30;;;8.70;34.80;;;;;;4980844;28;20941;-68
2023/11/21 00:02:27;;;;;;;2.87;1.10;;;8.70;32.50;;;;;;4978828;28;20420;-69
2023/11/21 00:04:52;;;;;;;2.47;1.43;;;8.60;30.70;;;;;;4979401;28;20509;-68
2023/11/21 00:07:18;;;;;;;2.37;1.30;;;8.60;30.70;;;;;;4977677;28;20464;-68
2023/11/21 00:09:43;;;;;;;3.50;1.17;;;8.70;30.90;;;;;;4980837;28;20235;-68
2023/11/21 00:12:09;;;;;;;4.23;1.63;;;8.70;30.80;;;;;;4980517;28;20231;-68
2023/11/21 00:14:36;;;;;;;4.63;1.30;;;8.80;29.70;;;;;;4979125;28;20276;-69
2023/11/21 00:17:02;;;;;;;3.70;1.13;;;8.80;29.70;;;;;;4980188;28;20972;-68
2023/11/21 00:19:28;;;;;;;7.10;1.47;;;8.80;30.50;;;;;;4979832;28;20960;-68
2023/11/21 00:21:53;;;;;;;2.47;1.00;;;8.80;30.90;;;;;;4979313;28;20433;-68
2023/11/21 00:24:19;;;;;;;1.93;0.77;;;8.90;31.00;;;;;;4979647;28;20196;-68
2023/11/21 00:26:45;;;;;;;2.47;1.40;;;8.90;29.20;;;;;;4980086;28;20177;-68
2023/11/21 00:29:10;;;;;;;2.43;1.13;;;8.80;29.30;;;;;;4979670;28;20291;-69
2023/11/21 00:31:36;;;;;;;2.50;1.10;;;8.80;29.40;;;;;;4978531;28;20209;-69
2023/11/21 00:34:05;;;;;;;2.43;1.03;;;8.80;28.40;;;;;;4978765;28;20169;-68
2023/11/21 00:36:31;;;;;;;3.70;1.20;;;8.80;27.20;;;;;;4979753;28;20431;-69
2023/11/21 00:38:57;;;;;;;2.30;1.00;;;8.80;27.10;;;;;;4979234;28;20444;-69
2023/11/21 00:41:23;;;;;;;1.87;0.73;;;8.90;27.60;;;;;;4977498;28;20421;-69
2023/11/21 00:43:48;;;;;;;4.20;1.50;;;8.90;27.90;;;;;;4978999;28;20173;-68
2023/11/21 00:46:14;;;;;;;2.37;1.27;;;9.00;27.40;;;;;;4977274;28;20178;-70
2023/11/21 00:48:39;;;;;;;3.30;1.00;;;9.00;26.50;;;;;;4976662;28;20587;-69
2023/11/21 00:51:06;;;;;;;1.80;0.87;;;9.00;24.70;;;;;;4976759;28;20177;-69
2023/11/21 00:53:31;;;;;;;2.63;1.17;;;9.00;23.70;;;;;;4977102;28;20204;-69
2023/11/21 00:55:57;;;;;;;1.73;1.00;;;9.00;23.20;;;;;;4977262;28;20423;-69
2023/11/21 00:58:26;;;;;;;2.50;0.87;;;9.10;23.30;;;;;;4977997;28;20193;-69
2023/11/21 01:00:52;;;;;;;1.87;0.60;;;9.10;23.20;;;;;;4975952;28;20255;-69
2023/11/21 01:03:18;;;;;;;2.10;0.70;;;9.00;23.60;;;;;;4973082;28;20437;-69
2023/11/21 01:05:44;;;;;;;1.53;0.60;;;9.00;22.10;;;;;;4972041;28;20424;-68
2023/11/21 01:08:10;;;;;;;3.10;1.13;;;9.00;22.70;;;;;;4973354;28;20436;-68
2023/11/21 01:10:36;;;;;;;2.43;0.80;;;9.00;22.70;;;;;;4973259;28;20413;-69
2023/11/21 01:13:04;;;;;;;2.27;1.00;;;9.00;22.70;;;;;;4973133;28;20894;-69
2023/11/21 01:15:29;;;;;;;4.23;1.13;;;9.00;22.70;;;;;;4973160;28;20195;-69
2023/11/21 01:17:55;;;;;;;1.87;0.70;;;9.00;22.30;;;;;;4973113;28;20411;-69
2023/11/21 01:20:20;;;;;;;5.03;0.80;;;9.10;21.40;;;;;;4973131;28;20180;-69
2023/11/21 01:22:48;;;;;;;1.60;0.60;;;9.10;21.60;;;;;;4972998;28;20713;-68
2023/11/21 01:25:15;;;;;;;2.83;0.80;;;9.20;20.50;;;;;;4972971;28;20176;-69
2023/11/21 01:27:41;;;;;;;1.40;0.40;;;9.20;20.20;;;;;;4973063;28;20481;-69
2023/11/21 01:30:10;;;;;;;1.80;0.57;;;9.20;19.90;;;;;;4972910;28;20436;-69
2023/11/21 01:32:36;;;;;;;2.20;0.90;;;9.00;20.30;;;;;;4971342;28;20480;-69
2023/11/21 01:35:02;;;;;;;1.97;0.60;;;9.00;18.70;;;;;;4972650;28;20419;-69
2023/11/21 01:37:27;;;;;;;3.03;0.93;;;9.00;19.10;;;;;;4972960;28;20496;-69
2023/11/21 01:39:54;;;;;;;1.80;0.93;;;9.00;19.90;;;;;;4972567;28;20463;-69
2023/11/21 01:42:21;;;;;;;1.60;0.50;;;9.00;20.20;;;;;;4972849;28;20298;-69
2023/11/21 01:44:47;;;;;;;2.13;0.70;;;8.90;19.80;;;;;;4972703;28;20869;-69
2023/11/21 01:47:13;;;;;;;4.27;0.70;;;9.00;19.00;;;;;;4972703;28;20180;-69
2023/11/21 01:49:39;;;;;;;1.90;0.70;;;9.00;19.10;;;;;;4972696;28;20203;-69
2023/11/21 01:52:06;;;;;;;1.70;0.60;;;8.80;19.40;;;;;;4972602;28;20551;-69
2023/11/21 01:54:32;;;;;;;1.60;0.70;;;8.90;19.40;;;;;;4972478;28;20416;-69
2023/11/21 01:57:02;;;;;;;2.00;0.70;;;8.80;19.80;;;;;;4972779;28;20417;-69
2023/11/21 01:59:34;;;;;;;1.60;0.57;;;8.70;20.40;;;;;;4971302;28;20535;-69
2023/11/21 02:01:59;;;;;;;1.67;0.53;;;8.70;21.60;;;;;;4972902;28;20522;-69
2023/11/21 02:04:25;;;;;;;2.03;0.60;;;8.60;21.30;;;;;;4972564;28;20926;-68
2023/11/21 02:06:50;;;;;;;2.27;0.80;;;8.50;21.80;;;;;;4955400;28;20189;-69
2023/11/21 02:09:17;;;;;;;1.50;0.50;;;8.50;21.50;;;;;;4972769;28;20289;-69
2023/11/21 02:11:43;;;;;;;1.90;0.70;;;8.50;21.50;;;;;;4972654;28;20204;-69
2023/11/21 02:14:09;;;;;;;5.17;0.80;;;8.50;22.00;;;;;;4972435;28;20420;-68
2023/11/21 02:16:36;;;;;;;1.60;0.50;;;8.50;20.90;;;;;;4972516;28;20440;-68
2023/11/21 02:19:09;;;;;;;3.03;0.70;;;8.50;21.30;;;;;;4972361;28;20446;-69
2023/11/21 02:21:36;;;;;;;1.83;0.80;;;8.50;21.90;;;;;;4972602;28;20470;-69
2023/11/21 02:24:01;;;;;;;2.33;0.50;;;8.60;22.30;;;;;;4972335;28;20424;-68
2023/11/21 02:26:27;;;;;;;1.60;0.60;;;8.60;20.40;;;;;;4971294;28;20431;-68
2023/11/21 02:28:53;;;;;;;2.30;0.57;;;8.70;21.60;;;;;;4972295;28;20225;-69
2023/11/21 02:31:18;;;;;;;2.37;0.93;;;8.70;20.80;;;;;;4972394;28;20555;-69
2023/11/21 02:33:44;;;;;;;1.60;0.70;;;8.70;19.60;;;;;;4972291;28;20416;-69
2023/11/21 02:36:10;;;;;;;1.83;0.50;;;8.60;20.10;;;;;;4972367;28;20263;-69
2023/11/21 02:38:35;;;;;;;1.70;0.60;;;8.50;20.10;;;;;;4972372;28;20725;-68
2023/11/21 02:41:01;;;;;;;2.40;0.63;;;8.40;20.70;;;;;;4972354;28;20207;-68
2023/11/21 02:43:26;;;;;;;1.90;0.73;;;8.30;21.70;;;;;;4972277;28;20199;-68
2023/11/21 02:45:52;;;;;;;1.77;0.70;;;8.30;22.20;;;;;;4975472;28;20177;-68
2023/11/21 02:48:17;;;;;;;1.90;0.50;;;8.40;21.90;;;;;;4975855;28;20251;-68
2023/11/21 02:50:43;;;;;;;1.40;0.50;;;8.40;21.40;;;;;;4975686;28;20188;-68
2023/11/21 02:53:10;;;;;;;4.13;1.00;;;8.40;21.30;;;;;;4975446;28;20208;-68
2023/11/21 02:55:36;;;;;;;1.40;0.40;;;8.50;20.80;;;;;;4975682;28;20177;-68
2023/11/21 02:58:03;;;;;;;2.80;0.80;;;8.50;20.10;;;;;;4975512;28;20807;-68
2023/11/21 03:00:29;;;;;;;1.40;0.40;;;8.50;20.70;;;;;;4975783;28;20176;-68
2023/11/21 03:02:56;;;;;;;1.60;0.50;;;8.60;20.80;;;;;;4975417;28;20427;-68
2023/11/21 03:05:21;;;;;;;2.03;0.60;;;8.60;20.40;;;;;;4975201;28;20229;-68
2023/11/21 03:07:47;;;;;;;1.50;0.50;;;8.60;19.60;;;;;;4975351;28;20423;-68
2023/11/21 03:10:12;;;;;;;1.50;0.60;;;8.60;19.10;;;;;;4975160;28;20582;-68
2023/11/21 03:12:39;;;;;;;1.77;0.60;;;8.60;19.30;;;;;;4975562;28;20224;-68
2023/11/21 03:15:08;;;;;;;1.60;0.80;;;8.70;19.20;;;;;;4975120;28;20424;-68
2023/11/21 03:17:34;;;;;;;2.10;0.60;;;8.70;19.00;;;;;;4975270;28;20413;-68
2023/11/21 03:20:00;;;;;;;1.50;0.50;;;8.80;18.70;;;;;;4975125;28;20432;-68
2023/11/21 03:22:26;;;;;;;2.87;0.60;;;8.80;19.00;;;;;;4975089;28;20181;-68
2023/11/21 03:24:52;;;;;;;3.17;0.70;;;8.80;18.40;;;;;;4973541;28;20519;-68
2023/11/21 03:27:18;;;;;;;2.07;0.67;;;8.80;18.30;;;;;;4974019;28;20483;-68
2023/11/21 03:29:44;;;;;;;1.80;0.77;;;8.80;18.30;;;;;;4974880;28;20444;-68
2023/11/21 03:32:11;;;;;;;2.20;0.70;;;8.70;19.20;;;;;;4974874;28;20292;-68
2023/11/21 03:34:55;;;;;;;1.50;0.50;;;8.70;19.70;;;;;;4974510;28;20423;-68
2023/11/21 03:37:20;;;;;;;1.40;0.40;;;8.60;19.60;;;;;;4973504;28;20424;-68
2023/11/21 03:39:46;;;;;;;2.33;0.63;;;8.60;18.90;;;;;;4979152;28;20560;-68
2023/11/21 03:42:12;;;;;;;1.97;0.60;;;8.60;19.70;;;;;;4964001;28;20272;-69
2023/11/21 03:44:38;;;;;;;2.57;0.53;;;8.60;20.10;;;;;;4981147;28;20441;-68
2023/11/21 03:47:03;;;;;;;2.07;0.80;;;8.70;19.80;;;;;;4980567;28;20188;-68
2023/11/21 03:49:29;;;;;;;1.90;0.60;;;8.70;19.40;;;;;;4977527;28;20591;-68
2023/11/21 03:51:55;;;;;;;1.50;0.40;;;8.70;20.00;;;;;;4978563;28;20219;-68
2023/11/21 03:54:21;;;;;;;1.40;0.40;;;8.70;19.20;;;;;;4977910;28;20185;-68
2023/11/21 03:56:46;;;;;;;1.43;0.43;;;8.80;18.90;;;;;;4976707;28;20430;-68
2023/11/21 03:59:12;;;;;;;1.50;0.50;;;8.70;19.30;;;;;;4977138;28;20208;-68
2023/11/21 04:01:37;;;;;;;1.50;0.47;;;8.80;19.20;;;;;;4960537;28;20185;-68
2023/11/21 04:04:04;;;;;;;1.40;0.40;;;8.90;19.00;;;;;;4976906;28;20567;-69
2023/11/21 04:06:29;;;;;;;1.50;0.40;;;8.90;19.20;;;;;;4978626;28;20261;-68
2023/11/21 04:08:55;;;;;;;1.83;0.60;;;8.90;18.80;;;;;;4983690;28;20487;-69
2023/11/21 04:11:20;;;;;;;1.47;0.43;;;8.90;18.40;;;;;;4984487;28;20219;-68
2023/11/21 04:13:46;;;;;;;1.50;0.63;;;8.90;18.60;;;;;;4962997;28;20173;-68
2023/11/21 04:16:12;;;;;;;1.40;0.50;;;8.90;18.80;;;;;;4979318;28;20176;-69
2023/11/21 04:18:38;;;;;;;3.40;0.90;;;8.90;18.80;;;;;;4978384;28;20808;-68
2023/11/21 04:21:05;;;;;;;1.40;0.50;;;9.00;18.50;;;;;;4978151;28;20952;-68
2023/11/21 04:23:31;;;;;;;3.00;0.67;;;9.00;18.60;;;;;;4977479;28;20415;-68
2023/11/21 04:25:57;;;;;;;1.43;0.50;;;9.10;19.20;;;;;;4977765;28;20447;-68
2023/11/21 04:28:26;;;;;;;4.03;0.50;;;9.10;18.50;;;;;;4977967;28;20445;-68
2023/11/21 04:30:51;;;;;;;1.90;0.60;;;9.10;19.00;;;;;;4977957;28;20467;-68
2023/11/21 04:33:17;;;;;;;1.60;0.60;;;9.10;19.40;;;;;;4977835;28;20468;-68
2023/11/21 04:35:43;;;;;;;1.60;0.50;;;9.20;19.40;;;;;;4978459;28;20200;-68
2023/11/21 04:38:08;;;;;;;3.20;0.70;;;9.10;19.20;;;;;;4961634;28;20639;-67
2023/11/21 04:40:34;;;;;;;1.80;0.50;;;9.10;18.80;;;;;;4978674;28;20200;-68
2023/11/21 04:42:59;;;;;;;2.17;0.60;;;9.10;19.10;;;;;;4978820;28;20623;-68
2023/11/21 04:45:25;;;;;;;1.70;0.50;;;9.10;19.60;;;;;;4981946;28;20178;-69
2023/11/21 04:47:52;;;;;;;2.10;0.53;;;9.10;20.00;;;;;;4981950;28;20193;-69
2023/11/21 04:50:18;;;;;;;2.07;0.77;;;9.10;20.20;;;;;;4977113;28;20275;-69
2023/11/21 04:52:44;;;;;;;1.60;0.50;;;9.10;20.40;;;;;;4979297;28;20476;-68
2023/11/21 04:55:10;;;;;;;1.80;0.60;;;9.10;21.50;;;;;;4980308;28;20421;-67
2023/11/21 04:57:36;;;;;;;1.93;0.80;;;9.10;21.80;;;;;;4980748;28;20184;-67
2023/11/21 05:00:05;;;;;;;1.70;0.60;;;9.00;22.70;;;;;;4981073;28;20255;-69
2023/11/21 05:02:34;;;;;;;1.87;0.80;;;9.00;22.70;;;;;;4981792;28;20444;-68
2023/11/21 05:04:59;;;;;;;1.97;0.93;;;9.00;22.70;;;;;;4980914;28;20421;-68
2023/11/21 05:07:28;;;;;;;1.60;0.70;;;9.00;22.90;;;;;;4980250;28;20423;-68
2023/11/21 05:09:57;;;;;;;4.10;1.43;;;9.00;22.70;;;;;;4977307;28;20428;-67
2023/11/21 05:12:23;;;;;;;1.90;0.80;;;9.00;22.90;;;;;;4977110;28;20464;-68
2023/11/21 05:14:50;;;;;;;3.00;0.90;;;9.00;24.30;;;;;;4981658;28;20409;-68
2023/11/21 05:17:15;;;;;;;2.03;0.60;;;8.90;24.60;;;;;;4980562;28;20413;-68
2023/11/21 05:19:41;;;;;;;2.00;0.73;;;9.00;24.00;;;;;;4979644;28;21025;-68
2023/11/21 05:22:08;;;;;;;1.90;0.80;;;8.90;23.80;;;;;;4980140;28;20244;-68
2023/11/21 05:24:34;;;;;;;2.43;1.13;;;9.00;24.20;;;;;;4980073;28;20177;-68
2023/11/21 05:27:00;;;;;;;2.23;0.93;;;8.90;24.20;;;;;;4979646;28;20483;-68
2023/11/21 05:29:26;;;;;;;2.80;1.23;;;8.90;24.80;;;;;;4978844;28;20448;-68
2023/11/21 05:31:52;;;;;;;2.57;1.10;;;8.90;25.20;;;;;;4976725;28;20321;-68
2023/11/21 05:34:18;;;;;;;1.83;0.80;;;8.90;25.80;;;;;;4976544;28;20173;-68
2023/11/21 05:36:45;;;;;;;1.70;0.80;;;9.00;25.60;;;;;;4960743;28;20904;-67
2023/11/21 05:39:11;;;;;;;2.03;0.97;;;9.00;25.40;;;;;;4974412;28;20219;-67
2023/11/21 05:41:37;;;;;;;2.80;0.70;;;8.90;26.40;;;;;;4972746;28;21100;-69
2023/11/21 05:44:02;;;;;;;1.80;0.50;;;8.90;26.20;;;;;;4971678;28;20455;-68
2023/11/21 05:46:28;;;;;;;2.33;0.97;;;8.90;26.10;;;;;;4972896;28;20244;-68
2023/11/21 05:48:54;;;;;;;2.10;0.73;;;8.90;25.90;;;;;;4972562;28;20208;-68
2023/11/21 05:51:20;;;;;;;4.13;1.20;;;8.90;26.00;;;;;;4972901;28;20183;-68
2023/11/21 05:53:46;;;;;;;2.00;0.83;;;8.90;26.00;;;;;;4972564;28;20416;-67
2023/11/21 05:56:13;;;;;;;2.37;0.80;;;8.70;27.90;;;;;;4972762;28;20203;-68
2023/11/21 05:58:39;;;;;;;3.00;0.60;;;8.80;27.90;;;;;;4972622;28;20444;-68
2023/11/21 06:01:07;;;;;;;1.47;0.63;;;8.80;27.90;;;;;;4971339;28;20439;-68
2023/11/21 06:03:33;;;;;;;2.40;0.80;;;8.80;26.20;;;;;;4972375;28;20645;-67
2023/11/21 06:05:58;;;;;;;2.30;0.77;;;8.80;27.30;;;;;;4973084;28;20470;-68
2023/11/21 06:08:24;;;;;;;4.87;0.80;;;8.80;27.70;;;;;;4972911;28;20737;-68
2023/11/21 06:10:50;;;;;;;2.60;1.43;;;8.80;27.60;;;;;;4972513;28;20240;-67
2023/11/21 06:13:16;;;;;;;7.47;1.80;;;8.80;27.80;;;;;;4972425;28;20567;-68
2023/11/21 06:15:42;;;;;;;2.07;1.33;;;8.80;28.80;;;;;;4972719;28;20184;-68
2023/11/21 06:18:09;;;;;;;3.40;1.37;;;8.70;29.00;;;;;;4972468;28;20473;-68
2023/11/21 06:20:37;;;;;;;2.73;1.30;;;8.60;28.60;;;;;;4974562;28;20420;-68
2023/11/21 06:23:03;;;;;;;2.43;1.30;;;8.50;30.00;;;;;;4976166;28;20477;-68
2023/11/21 06:25:29;;;;;;;2.57;0.90;;;8.50;30.40;;;;;;4976030;28;20853;-68
2023/11/21 06:27:54;;;;;;;3.70;1.50;;;8.50;30.60;;;;;;4976006;28;20451;-68
2023/11/21 06:30:21;;;;;;;1.97;1.10;;;8.60;30.70;;;;;;4976189;28;20188;-68
2023/11/21 06:32:47;;;;;;;2.20;1.00;;;8.50;30.60;;;;;;4976107;28;20258;-68
2023/11/21 06:35:13;;;;;;;4.20;1.33;;;8.40;30.50;;;;;;4976023;28;20456;-68
2023/11/21 06:37:39;;;;;;;1.97;0.93;;;8.20;31.20;;;;;;4976238;28;20306;-67
2023/11/21 06:40:05;;;;;;;3.10;1.40;;;8.30;33.60;;;;;;4975821;28;20486;-68
2023/11/21 06:42:33;;;;;;;1.73;0.90;;;8.30;33.30;;;;;;4976048;28;20239;-67
2023/11/21 06:44:59;;;;;;;2.47;1.37;;;8.40;33.30;;;;;;4975748;28;20417;-67
2023/11/21 06:47:25;;;;;;;2.40;1.23;;;8.40;33.60;;;;;;4975955;28;20770;-68
2023/11/21 06:49:54;;;;;;;2.37;1.10;;;8.40;33.20;;;;;;4975778;28;20220;-69
2023/11/21 06:52:19;;;;;;;1.80;1.10;;;8.50;32.90;;;;;;4972233;28;20827;-68
2023/11/21 06:54:45;;;;;;;2.23;1.20;;;8.50;32.00;;;;;;4975351;28;20448;-69
2023/11/21 06:57:11;;;;;;;3.50;1.70;;;8.50;33.20;;;;;;4975959;28;20460;-68
2023/11/21 06:59:37;;;;;;;3.70;1.43;;;8.50;30.70;;;;;;4975678;28;20580;-68
2023/11/21 07:02:04;;;;;;;3.23;1.07;;;8.60;30.70;;;;;;4975936;28;20596;-67
2023/11/21 07:04:30;;;;;;;2.63;1.87;;;8.60;30.80;;;;;;4975730;28;20451;-68
2023/11/21 07:06:56;;;;;;;6.70;2.20;;;8.70;31.40;;;;;;4975897;28;20833;-67
2023/11/21 07:09:22;;;;;;;5.23;1.83;;;8.70;29.70;;;;;;4975963;28;20229;-68
2023/11/21 07:11:48;;;;;;;3.90;2.40;;;8.80;30.90;;;;;;4975887;28;20554;-68
2023/11/21 07:14:14;;;;;;;3.77;2.23;;;8.90;30.30;;;;;;4975659;28;20421;-67
2023/11/21 07:16:40;;;;;;;4.13;2.90;;;8.90;29.20;;;;;;4975840;28;20781;-68
2023/11/21 07:19:06;;;;;;;2.60;2.03;;;9.00;29.40;;;;;;4975660;28;20436;-68
2023/11/21 07:21:33;;;;;;;5.30;2.40;;;9.10;28.20;;;;;;4958480;28;20456;-68
2023/11/21 07:24:01;;;;;;;3.00;2.23;;;9.20;27.30;;;;;;4958156;28;20424;-68
2023/11/21 07:26:27;;;;;;;2.30;1.30;;;9.30;24.60;;;;;;4975185;28;20781;-68
2023/11/21 07:28:52;;;;;;;2.30;1.30;;;9.20;24.20;;;;;;4974773;28;20435;-68
2023/11/21 07:31:19;;;;;;;2.23;0.90;;;9.20;23.30;;;;;;4974639;28;20759;-67
2023/11/21 07:33:47;;;;;;;2.33;1.10;;;9.10;24.70;;;;;;4974389;28;20207;-67
2023/11/21 07:36:12;;;;;;;2.40;1.20;;;9.20;24.30;;;;;;4974797;28;20414;-69
2023/11/21 07:38:38;;;;;;;2.63;1.10;;;9.20;24.80;;;;;;4974588;28;20452;-68
2023/11/21 07:41:04;;;;;;;1.90;1.07;;;9.40;24.40;;;;;;4974657;28;20842;-68
2023/11/21 07:43:34;;;;;;;2.70;1.40;;;9.50;23.00;;;;;;4957223;28;20464;-68
2023/11/21 07:46:04;;;;;;;1.70;0.80;;;9.60;23.10;;;;;;4974547;28;20426;-67
2023/11/21 07:48:32;;;;;;;2.57;1.00;;;9.70;23.10;;;;;;4974786;28;20439;-67
2023/11/21 07:50:58;;;;;;;1.93;0.80;;;9.80;22.00;;;;;;4975169;28;20783;-69
2023/11/21 07:53:29;;;;;;;3.80;1.80;;;9.80;22.80;;;;;;4974289;28;20467;-67
2023/11/21 07:55:55;;;;;;;2.70;1.20;;;9.80;23.20;;;;;;4974612;28;20492;-67
2023/11/21 07:58:21;;;;;;;2.23;0.70;;;9.90;23.30;;;;;;4957257;28;20540;-67
2023/11/21 08:00:47;;;;;;;47.60;8.20;;;10.00;22.60;;;;;;4974418;28;20468;-68
2023/11/21 08:03:15;;;;;;;50.63;10.87;;;10.10;20.90;;;;;;4989350;28;20678;-68
2023/11/21 08:05:41;;;;;;;10.37;2.50;;;10.10;20.30;;;;;;4994231;28;20662;-67
2023/11/21 08:08:07;;;;;;;5.43;1.87;;;10.10;19.70;;;;;;4993857;28;20454;-67
2023/11/21 08:10:33;;;;;;;2.13;0.80;;;10.00;20.90;;;;;;4993398;28;20412;-69
2023/11/21 08:12:58;;;;;;;1.80;0.67;;;10.00;18.70;;;;;;4993489;28;20645;-70
2023/11/21 08:15:24;;;;;;;1.93;0.80;;;9.80;19.00;;;;;;4975899;28;20553;-68
2023/11/21 08:17:49;;;;;;;2.20;0.63;;;9.80;20.80;;;;;;4993539;28;20188;-67
2023/11/21 08:20:16;;;;;;;1.60;0.60;;;9.80;20.10;;;;;;4993601;28;20207;-68
2023/11/21 08:22:44;;;;;;;2.00;0.57;;;9.50;21.30;;;;;;4993481;28;20272;-68
2023/11/21 08:25:11;;;;;;;2.03;0.70;;;9.50;22.80;;;;;;4993041;28;20478;-68
2023/11/21 08:27:36;;;;;;;1.93;0.80;;;9.40;22.90;;;;;;4993387;28;20446;-69
2023/11/21 08:30:07;;;;;;;2.20;0.83;;;9.50;23.70;;;;;;4975747;28;20476;-69
2023/11/21 08:32:33;;;;;;;2.07;0.87;;;9.40;22.90;;;;;;4975738;28;20456;-69
2023/11/21 08:35:00;;;;;;;1.80;0.77;;;9.50;24.20;;;;;;4993249;28;20793;-68
2023/11/21 08:37:26;;;;;;;3.03;0.77;;;9.60;24.40;;;;;;4970422;28;20438;-69
2023/11/21 08:39:52;;;;;;;1.90;1.10;;;9.70;21.00;;;;;;4973362;28;20961;-69
2023/11/21 08:42:18;;;;;;;1.63;0.80;;;9.70;21.40;;;;;;4969283;28;20422;-68
2023/11/21 08:44:44;;;;;;;2.17;0.70;;;9.80;21.30;;;;;;4972327;28;20432;-68
2023/11/21 08:47:09;;;;;;;2.53;0.90;;;9.80;21.20;;;;;;4973162;28;20420;-68
2023/11/21 08:49:35;;;;;;;3.60;0.97;;;9.90;21.50;;;;;;4973196;28;20757;-68
2023/11/21 08:52:01;;;;;;;1.93;0.83;;;10.00;21.80;;;;;;4972418;28;20193;-69
2023/11/21 08:54:26;;;;;;;1.80;0.77;;;10.00;19.90;;;;;;4952298;28;20190;-69
2023/11/21 08:56:53;;;;;;;1.60;0.70;;;9.90;22.80;;;;;;4964527;28;20201;-68
2023/11/21 08:59:19;;;;;;;1.60;0.50;;;10.00;20.60;;;;;;4973315;28;20280;-69
2023/11/21 09:01:46;;;;;;;1.90;0.63;;;10.10;21.00;;;;;;4970031;28;20416;-69
2023/11/21 09:04:12;;;;;;;4.87;1.50;;;10.30;20.00;;;;;;4973025;28;20424;-69
2023/11/21 09:06:38;;;;;;;2.10;0.80;;;10.20;18.50;;;;;;4955659;28;20448;-70
2023/11/21 09:09:05;;;;;;;1.90;0.70;;;10.20;18.50;;;;;;4973237;28;20462;-68
2023/11/21 09:11:33;;;;;;;2.00;0.80;;;10.10;18.50;;;;;;4961665;28;20441;-69
2023/11/21 09:14:03;;;;;;;2.10;0.70;;;10.40;18.60;;;;;;4963742;28;20794;-69
2023/11/21 09:16:29;;;;;;;3.03;0.90;;;10.60;18.40;;;;;;4936755;29;20429;-69
2023/11/21 09:18:54;;;;;;;2.07;1.20;;;10.70;17.50;;;;;;4953995;29;20504;-69
2023/11/21 09:21:20;;;;;;;2.17;1.07;;;10.80;15.10;;;;;;4955104;28;20406;-69
2023/11/21 09:23:46;;;;;;;2.13;1.20;;;10.90;16.40;;;;;;4937655;29;20189;-68
2023/11/21 09:26:12;;;;;;;3.03;1.00;;;11.00;16.10;;;;;;4953992;28;20178;-68
2023/11/21 09:28:38;;;;;;;2.10;1.07;;;11.10;14.00;;;;;;4955639;28;20205;-69
2023/11/21 09:31:09;;;;;;;1.70;0.70;;;11.20;14.80;;;;;;4938251;29;20182;-68
2023/11/21 09:33:35;;;;;;;2.00;1.00;;;10.90;14.60;;;;;;4958232;28;20694;-71
2023/11/21 09:36:04;;;;;;;2.20;1.00;;;10.80;14.60;;;;;;4953632;28;20436;-68
2023/11/21 09:38:30;;;;;;;2.10;1.00;;;10.70;14.50;;;;;;4960564;23;20261;-71
2023/11/21 09:40:58;;;;;;;2.37;0.90;;;10.70;16.60;;;;;;5031382;28;20507;-68
2023/11/21 09:43:27;;;;;;;2.37;1.03;;;10.60;15.60;;;;;;5030770;28;20262;-73
2023/11/21 09:45:59;;;;;;;1.77;0.80;;;10.70;15.10;;;;;;5031350;28;20417;-70
2023/11/21 09:48:26;;;;;;;2.37;0.97;;;10.60;14.20;;;;;;5028526;28;20508;-70
2023/11/21 09:50:53;;;;;;;2.63;1.10;;;10.40;14.30;;;;;;5011220;28;20465;-70
2023/11/21 09:53:21;;;;;;;2.33;1.37;;;10.40;14.70;;;;;;5010938;28;20553;-71
2023/11/21 09:55:50;;;;;;;2.80;0.93;;;10.20;15.20;;;;;;5015307;28;20419;-70
2023/11/21 09:58:17;;;;;;;1.80;1.10;;;10.30;16.70;;;;;;5013312;28;20456;-71
2023/11/21 10:00:44;;;;;;;2.10;0.93;;;10.50;16.90;;;;;;5014874;28;20460;-71
2023/11/21 10:03:11;;;;;;;2.10;1.00;;;10.50;16.00;;;;;;5014655;28;20419;-71
2023/11/21 10:05:37;;;;;;;2.67;0.87;;;10.70;14.60;;;;;;5014732;28;20495;-68
2023/11/21 10:08:10;;;;;;;3.10;1.00;;;10.70;14.50;;;;;;5014929;28;20903;-66
2023/11/21 10:10:38;;;;;;;1.77;0.83;;;10.70;14.50;;;;;;5014901;28;20789;-70
2023/11/21 10:13:07;;;;;;;3.70;0.90;;;10.90;14.20;;;;;;5014621;28;20496;-69
2023/11/21 10:15:37;;;;;;;1.80;0.70;;;11.00;12.00;;;;;;5014599;28;20490;-70
2023/11/21 10:18:04;;;;;;;2.00;1.00;;;10.80;12.60;;;;;;5014782;28;20505;-69
2023/11/21 10:20:31;;;;;;;2.13;0.97;;;10.80;12.40;;;;;;5014593;28;21072;-70
2023/11/21 10:22:57;;;;;;;1.80;0.80;;;10.60;14.40;;;;;;5014477;28;20418;-69
2023/11/21 10:25:22;;;;;;;2.20;0.80;;;10.60;14.00;;;;;;5014315;28;20415;-70
2023/11/21 10:27:51;;;;;;;3.60;0.90;;;10.60;13.30;;;;;;5014315;28;20557;-69
2023/11/21 10:30:18;;;;;;;2.83;1.00;;;10.50;13.60;;;;;;5014143;28;20338;-69
2023/11/21 10:32:44;;;;;;;1.70;0.80;;;10.30;14.90;;;;;;5014192;28;20938;-69
2023/11/21 10:35:10;;;;;;;2.00;0.83;;;10.30;17.40;;;;;;5014320;28;20754;-69
2023/11/21 10:37:39;;;;;;;2.63;1.10;;;10.40;19.70;;;;;;5014156;28;20908;-69
2023/11/21 10:40:12;;;;;;;3.90;1.03;;;10.40;21.80;;;;;;5013892;28;20521;-69
2023/11/21 10:42:38;;;;;;;2.10;1.27;;;10.30;22.80;;;;;;5013969;28;20423;-69
2023/11/21 10:45:12;;;;;;;3.03;1.00;;;10.30;24.00;;;;;;5013853;28;20425;-70
2023/11/21 10:47:39;;;;;;;1.87;0.80;;;10.40;22.90;;;;;;5014110;28;20448;-69
2023/11/21 10:50:05;;;;;;;2.00;0.93;;;10.30;22.40;;;;;;5014063;28;20439;-70
2023/11/21 10:52:31;;;;;;;2.37;0.93;;;10.40;22.10;;;;;;5014192;28;20458;-69
2023/11/21 10:54:58;;;;;;;1.60;0.70;;;10.40;21.00;;;;;;5013802;28;20790;-70
2023/11/21 10:57:25;;;;;;;2.10;0.97;;;10.40;21.60;;;;;;5013928;28;20222;-70
2023/11/21 10:59:54;;;;;;;1.67;0.67;;;10.40;20.50;;;;;;5013905;28;20430;-69
2023/11/21 11:02:27;;;;;;;1.60;0.70;;;10.40;21.30;;;;;;5014123;28;20446;-69
2023/11/21 11:04:55;;;;;;;2.00;0.87;;;10.20;22.70;;;;;;5013614;28;20498;-69
2023/11/21 11:07:24;;;;;;;1.70;0.90;;;10.20;22.70;;;;;;5013337;28;20410;-69
2023/11/21 11:09:50;;;;;;;5.03;1.40;;;10.10;23.00;;;;;;5013749;28;20444;-69
2023/11/21 11:12:17;;;;;;;2.00;1.00;;;10.10;23.90;;;;;;5002217;28;20967;-69
2023/11/21 11:14:44;;;;;;;2.20;1.40;;;9.90;25.70;;;;;;5008802;28;20788;-69
2023/11/21 11:17:10;;;;;;;3.07;1.00;;;10.20;24.80;;;;;;5013575;28;20410;-69
2023/11/21 11:19:37;;;;;;;2.57;1.10;;;10.40;23.30;;;;;;5013451;28;20435;-69
2023/11/21 11:22:11;;;;;;;2.37;1.10;;;10.50;22.40;;;;;;5012990;28;20461;-69
2023/11/21 11:25:19;;;;;;;1.73;0.77;;;10.50;22.60;;;;;;4995275;28;20422;-69
2023/11/21 11:27:51;;;;;;;3.20;0.90;;;10.80;22.40;;;;;;5013108;28;20438;-69
2023/11/21 11:30:29;;;;;;;2.60;1.00;;;11.00;22.50;;;;;;5008750;28;20446;-70
2023/11/21 11:33:14;;;;;;;1.90;0.90;;;11.20;18.50;;;;;;5015663;28;20458;-69
2023/11/21 11:36:00;;;;;;;3.30;1.37;;;11.30;17.40;;;;;;5013005;28;20419;-69
2023/11/21 11:38:30;;;;;;;1.60;0.70;;;11.40;18.00;;;;;;5012956;28;20490;-70
2023/11/21 11:40:56;;;;;;;2.10;0.80;;;11.20;15.20;;;;;;4995447;28;20458;-70
2023/11/21 11:43:28;;;;;;;1.70;0.70;;;11.00;17.20;;;;;;5012616;28;20820;-70
2023/11/21 11:45:58;;;;;;;1.90;0.70;;;10.80;17.50;;;;;;4995540;28;20181;-70
2023/11/21 11:48:24;;;;;;;1.80;0.80;;;10.80;17.00;;;;;;5013145;28;20466;-70
2023/11/21 11:51:10;;;;;;;2.07;1.10;;;11.20;17.90;;;;;;5013029;28;20411;-70
2023/11/21 11:53:37;;;;;;;1.60;0.70;;;11.40;15.40;;;;;;4994884;28;20468;-68
2023/11/21 11:56:31;;;;;;;3.70;1.10;;;11.30;16.20;;;;;;5013110;28;20889;-68
2023/11/21 11:58:58;;;;;;;2.37;1.20;;;11.30;16.60;;;;;;5012611;28;20956;-68
2023/11/21 12:01:27;;;;;;;3.53;1.80;;;11.00;19.80;;;;;;5012709;28;20836;-68
2023/11/21 12:04:20;;;;;;;2.07;1.20;;;11.00;19.90;;;;;;5012224;28;20819;-68
2023/11/21 12:06:46;;;;;;;3.53;1.63;;;10.50;19.40;;;;;;4997553;28;20442;-69
2023/11/21 12:09:32;;;;;;;2.67;1.20;;;10.40;21.80;;;;;;4993001;28;20434;-67
2023/11/21 12:11:58;;;;;;;2.33;0.87;;;10.20;23.10;;;;;;4993050;28;20880;-68
2023/11/21 12:14:24;;;;;;;2.20;0.77;;;10.20;24.90;;;;;;5012348;28;20447;-68
2023/11/21 12:16:51;;;;;;;2.07;0.80;;;10.20;24.10;;;;;;5011906;28;20458;-68
2023/11/21 12:19:17;;;;;;;3.80;1.13;;;10.10;25.10;;;;;;5012092;28;20274;-68
2023/11/21 12:21:44;;;;;;;3.00;1.37;;;10.20;26.20;;;;;;4994924;28;20515;-68
2023/11/21 12:24:09;;;;;;;3.40;1.80;;;10.30;26.00;;;;;;5012155;28;20176;-68
2023/11/21 12:26:38;;;;;;;2.37;1.13;;;10.20;26.60;;;;;;5012410;28;20411;-68
2023/11/21 12:29:04;;;;;;;1.93;1.17;;;10.30;26.80;;;;;;5012689;28;20238;-68
2023/11/21 12:31:30;;;;;;;2.27;1.10;;;10.20;27.50;;;;;;5013865;28;20439;-71
2023/11/21 12:33:57;;;;;;;5.23;1.50;;;10.30;27.20;;;;;;5011896;28;20273;-68
2023/11/21 12:36:22;;;;;;;3.70;1.30;;;10.20;26.70;;;;;;5012345;28;20433;-68
2023/11/21 12:38:48;;;;;;;3.10;1.00;;;10.20;27.00;;;;;;5003393;28;20459;-68
2023/11/21 12:41:17;;;;;;;1.90;1.00;;;10.10;27.60;;;;;;5012078;28;20255;-68
2023/11/21 12:43:43;;;;;;;2.93;1.10;;;10.30;26.90;;;;;;5011206;28;20176;-69
2023/11/21 12:46:10;;;;;;;2.40;1.20;;;10.10;27.80;;;;;;5012139;28;20422;-68
2023/11/21 12:48:43;;;;;;;2.53;1.00;;;10.10;26.80;;;;;;5088805;28;21085;-68
2023/11/21 12:51:15;;;;;;;3.30;1.27;;;10.00;27.20;;;;;;5089111;28;20446;-69